Rome Heights, Illinois
Current Conditions -  °F | °C
As of 2:35 AM on Saturday 29 Nov 2014 (Local Time) from KC75 Reporting Station
Clear Clear  
Wind Chill: 28°   Ceiling: Unl
Heat Index: 34°   Visibility: 10mi
Dew Point: 31°   Wind: 7mph
Humidity: 86%   Direction: 160°SSE
Pressure: 29.77"   Gusts: NA
Location:  40.915°N, 89.5303°W
Report Text: KC75 290835Z AUTO 16006KT 10SM CLR 01/M01 A2977 RMK AO2 T00131008
Loading
Personal Weather Stations






























Interactive Weather Map New forecast layout! Learn more

10-Day Weather Forecast

Advertisements
Track Severe Weather on mobile